Time;durP1;ratioP1;P1;durP2;ratioP2;P2;SDS_P1;SDS_P2;PMS_P1;PMS_P2;Temp;Humidity;BMP_temperature;BMP_pressure;BME280_temperature;BME280_humidity;BME280_pressure;Samples;Min_cycle;Max_cycle;Signal;HPM_P1;HPM_P2
2023/08/13 00:00:22;;;;;;;;;;;21.90;99.90;;;;;;4594529;19;19934;-62
2023/08/13 00:02:13;;;;;;;;;;;21.90;99.90;;;;;;4593320;19;19997;-63
2023/08/13 00:03:45;;;;;;;;;;;21.80;99.90;;;;;;4594709;19;19922;-63
2023/08/13 00:05:16;;;;;;;;;;;21.80;99.90;;;;;;4593165;19;19919;-62
2023/08/13 00:06:47;;;;;;;;;;;21.80;99.90;;;;;;4594477;19;19915;-63
2023/08/13 00:08:19;;;;;;;;;;;21.80;99.90;;;;;;4594824;19;19915;-63
2023/08/13 00:09:51;;;;;;;;;;;21.80;99.90;;;;;;4594790;19;20231;-63
2023/08/13 00:11:22;;;;;;;;;;;21.80;99.90;;;;;;4594251;19;19925;-62
2023/08/13 00:12:53;;;;;;;;;;;21.80;99.90;;;;;;4595042;19;19994;-62
2023/08/13 00:14:25;;;;;;;;;;;21.80;99.90;;;;;;4594115;19;19922;-62
2023/08/13 00:15:56;;;;;;;;;;;21.80;99.90;;;;;;4594609;19;19967;-62
2023/08/13 00:17:27;;;;;;;;;;;21.80;99.90;;;;;;4594403;19;19919;-63
2023/08/13 00:18:59;;;;;;;;;;;21.80;99.90;;;;;;4594261;19;19918;-62
2023/08/13 00:20:30;;;;;;;;;;;21.80;99.90;;;;;;4594248;19;19978;-63
2023/08/13 00:22:01;;;;;;;;;;;21.80;99.90;;;;;;4593223;19;19943;-62
2023/08/13 00:23:35;;;;;;;;;;;21.80;99.90;;;;;;4594559;19;19919;-62
2023/08/13 00:25:07;;;;;;;;;;;21.80;99.90;;;;;;4594512;19;19911;-62
2023/08/13 00:26:38;;;;;;;;;;;21.80;99.90;;;;;;4594154;19;19911;-62
2023/08/13 00:28:10;;;;;;;;;;;21.80;99.90;;;;;;4592740;19;19910;-62
2023/08/13 00:29:41;;;;;;;;;;;21.80;99.90;;;;;;4593697;19;20291;-62
2023/08/13 00:31:12;;;;;;;;;;;21.70;99.90;;;;;;4594218;19;20291;-62
2023/08/13 00:32:44;;;;;;;;;;;21.80;99.90;;;;;;4594303;19;19915;-62
2023/08/13 00:34:15;;;;;;;;;;;21.80;99.90;;;;;;4594293;19;19914;-62
2023/08/13 00:35:47;;;;;;;;;;;21.80;99.90;;;;;;4592638;19;19918;-62
2023/08/13 00:37:18;;;;;;;;;;;21.80;99.90;;;;;;4594223;19;19919;-62
2023/08/13 00:38:50;;;;;;;;;;;21.80;99.90;;;;;;4593878;19;19914;-62
2023/08/13 00:40:21;;;;;;;;;;;21.80;99.90;;;;;;4592444;19;20303;-63
2023/08/13 00:41:53;;;;;;;;;;;21.80;99.90;;;;;;4592853;19;19926;-62
2023/08/13 00:43:24;;;;;;;;;;;21.70;99.90;;;;;;4593709;19;20299;-62
2023/08/13 00:44:55;;;;;;;;;;;21.80;99.90;;;;;;4593835;19;19915;-62
2023/08/13 00:46:27;;;;;;;;;;;21.70;99.90;;;;;;4592291;19;19918;-62
2023/08/13 00:47:59;;;;;;;;;;;21.70;99.90;;;;;;4593335;19;19978;-63
2023/08/13 00:49:30;;;;;;;;;;;21.70;99.90;;;;;;4592597;19;19911;-62
2023/08/13 00:51:02;;;;;;;;;;;21.70;99.90;;;;;;4592297;19;19922;-62
2023/08/13 00:52:34;;;;;;;;;;;21.70;99.90;;;;;;4591784;19;19915;-63
2023/08/13 00:54:06;;;;;;;;;;;21.70;99.90;;;;;;4592196;19;19922;-63
2023/08/13 00:55:37;;;;;;;;;;;21.70;99.90;;;;;;4591085;19;19939;-62
2023/08/13 00:57:09;;;;;;;;;;;21.70;99.90;;;;;;4593124;19;19918;-63
2023/08/13 00:58:41;;;;;;;;;;;21.70;99.90;;;;;;4592172;19;19974;-63
2023/08/13 01:00:13;;;;;;;;;;;21.70;99.90;;;;;;4591631;19;19967;-63
2023/08/13 01:01:44;;;;;;;;;;;21.70;99.90;;;;;;4591238;19;20302;-63
2023/08/13 01:03:17;;;;;;;;;;;21.70;99.90;;;;;;4593324;19;19927;-62
2023/08/13 01:04:48;;;;;;;;;;;21.70;99.90;;;;;;4593244;19;19919;-62
2023/08/13 01:06:27;;;;;;;;;;;21.70;99.90;;;;;;4593261;19;19915;-62
2023/08/13 01:08:08;;;;;;;;;;;21.70;99.90;;;;;;4593396;19;19943;-62
2023/08/13 01:09:45;;;;;;;;;;;21.70;99.90;;;;;;4592276;19;19923;-63
2023/08/13 01:11:37;;;;;;;;;;;21.70;99.90;;;;;;4592840;19;20219;-62
2023/08/13 01:13:10;;;;;;;;;;;21.70;99.90;;;;;;4592540;19;19966;-62
2023/08/13 01:14:42;;;;;;;;;;;21.70;99.90;;;;;;4591816;19;19918;-62
2023/08/13 01:16:13;;;;;;;;;;;21.70;99.90;;;;;;4593079;19;20232;-62
2023/08/13 01:17:44;;;;;;;;;;;21.70;99.90;;;;;;4592159;19;20296;-62
2023/08/13 01:19:16;;;;;;;;;;;21.60;99.90;;;;;;4592973;19;19919;-62
2023/08/13 01:20:47;;;;;;;;;;;21.70;99.90;;;;;;4593738;19;19918;-62
2023/08/13 01:22:23;;;;;;;;;;;21.60;99.90;;;;;;4592467;19;20288;-62
2023/08/13 01:23:55;;;;;;;;;;;21.60;99.90;;;;;;4592054;19;19921;-62
2023/08/13 01:25:26;;;;;;;;;;;21.60;99.90;;;;;;4592844;19;20227;-62
2023/08/13 01:27:07;;;;;;;;;;;21.60;99.90;;;;;;4591939;19;19921;-62
2023/08/13 01:28:39;;;;;;;;;;;21.60;99.90;;;;;;4592990;19;20291;-62
2023/08/13 01:30:19;;;;;;;;;;;21.60;99.90;;;;;;4593212;19;19915;-62
2023/08/13 01:31:51;;;;;;;;;;;21.60;99.90;;;;;;4592518;19;19937;-62
2023/08/13 01:33:27;;;;;;;;;;;21.60;99.90;;;;;;4593172;19;19919;-62
2023/08/13 01:34:58;;;;;;;;;;;21.60;99.90;;;;;;4591312;19;19911;-62
2023/08/13 01:36:30;;;;;;;;;;;21.60;99.90;;;;;;4591662;19;20295;-62
2023/08/13 01:38:02;;;;;;;;;;;21.60;99.90;;;;;;4591757;19;19925;-62
2023/08/13 01:39:34;;;;;;;;;;;21.60;99.90;;;;;;4591794;19;20316;-62
2023/08/13 01:41:05;;;;;;;;;;;21.60;99.90;;;;;;4592613;19;19914;-62
2023/08/13 01:42:37;;;;;;;;;;;21.60;99.90;;;;;;4591589;19;19930;-63
2023/08/13 01:44:08;;;;;;;;;;;21.60;99.90;;;;;;4593280;19;19925;-62
2023/08/13 01:45:39;;;;;;;;;;;21.60;99.90;;;;;;4592872;19;20299;-62
2023/08/13 01:47:11;;;;;;;;;;;21.60;99.90;;;;;;4593172;19;19931;-62
2023/08/13 01:48:42;;;;;;;;;;;21.60;99.90;;;;;;4592952;19;19915;-62
2023/08/13 01:50:13;;;;;;;;;;;21.60;99.90;;;;;;4593149;19;20305;-62
2023/08/13 01:51:45;;;;;;;;;;;21.60;99.90;;;;;;4592060;19;19922;-62
2023/08/13 01:53:16;;;;;;;;;;;21.60;99.90;;;;;;4593163;19;19923;-62
2023/08/13 01:54:48;;;;;;;;;;;21.60;99.90;;;;;;4591078;19;20248;-62
2023/08/13 01:56:19;;;;;;;;;;;21.60;99.90;;;;;;4592311;19;20350;-63
2023/08/13 01:57:50;;;;;;;;;;;21.60;99.90;;;;;;4593061;19;19918;-62
2023/08/13 01:59:22;;;;;;;;;;;21.60;99.90;;;;;;4593105;19;19911;-62
2023/08/13 02:00:54;;;;;;;;;;;21.60;99.90;;;;;;4592725;19;19919;-62
2023/08/13 02:02:25;;;;;;;;;;;21.60;99.90;;;;;;4591125;19;19918;-62
2023/08/13 02:03:56;;;;;;;;;;;21.60;99.90;;;;;;4592688;19;19918;-62
2023/08/13 02:05:28;;;;;;;;;;;21.60;99.90;;;;;;4592914;19;19926;-62
2023/08/13 02:06:59;;;;;;;;;;;21.60;99.90;;;;;;4592645;19;20222;-62
2023/08/13 02:08:31;;;;;;;;;;;21.60;99.90;;;;;;4592927;19;19918;-62
2023/08/13 02:10:03;;;;;;;;;;;21.60;99.90;;;;;;4592898;19;19927;-62
2023/08/13 02:11:34;;;;;;;;;;;21.60;99.90;;;;;;4592986;19;19918;-62
2023/08/13 02:13:05;;;;;;;;;;;21.60;99.90;;;;;;4597317;19;19919;-62
2023/08/13 02:14:37;;;;;;;;;;;21.60;99.90;;;;;;4596968;19;20229;-62
2023/08/13 02:16:08;;;;;;;;;;;21.60;99.90;;;;;;4597270;19;19915;-62
2023/08/13 02:17:39;;;;;;;;;;;21.60;99.90;;;;;;4597512;19;20286;-62
2023/08/13 02:19:11;;;;;;;;;;;21.60;99.90;;;;;;4597180;19;19915;-62
2023/08/13 02:20:42;;;;;;;;;;;21.60;99.90;;;;;;4595901;19;19915;-62
2023/08/13 02:22:13;;;;;;;;;;;21.60;99.90;;;;;;4594975;19;19995;-62
2023/08/13 02:23:45;;;;;;;;;;;21.60;99.90;;;;;;4597465;19;19915;-62
2023/08/13 02:25:16;;;;;;;;;;;21.60;99.90;;;;;;4595805;19;19922;-62
2023/08/13 02:26:47;;;;;;;;;;;21.60;99.90;;;;;;4596516;19;19915;-62
2023/08/13 02:28:19;;;;;;;;;;;21.60;99.90;;;;;;4597337;19;19918;-62
2023/08/13 02:29:50;;;;;;;;;;;21.60;99.90;;;;;;4597254;19;20213;-62
2023/08/13 02:31:21;;;;;;;;;;;21.60;99.90;;;;;;4596749;19;19915;-62
2023/08/13 02:32:53;;;;;;;;;;;21.60;99.90;;;;;;4596921;19;19935;-63
2023/08/13 02:34:24;;;;;;;;;;;21.60;99.90;;;;;;4597005;19;19917;-62
2023/08/13 02:35:55;;;;;;;;;;;21.60;99.90;;;;;;4596762;19;20228;-62
2023/08/13 02:37:26;;;;;;;;;;;21.60;99.90;;;;;;4597089;19;19989;-63
2023/08/13 02:38:57;;;;;;;;;;;21.60;99.90;;;;;;4596846;19;19911;-62
2023/08/13 02:40:29;;;;;;;;;;;21.60;99.90;;;;;;4596678;19;19933;-63
2023/08/13 02:42:01;;;;;;;;;;;21.60;99.90;;;;;;4595411;19;19915;-62
2023/08/13 02:43:38;;;;;;;;;;;21.50;99.90;;;;;;4596936;19;19915;-62
2023/08/13 02:45:09;;;;;;;;;;;21.50;99.90;;;;;;4595269;19;19915;-62
2023/08/13 02:46:43;;;;;;;;;;;21.50;99.90;;;;;;4596182;19;19914;-62
2023/08/13 02:48:14;;;;;;;;;;;21.40;99.90;;;;;;4596918;19;19917;-62
2023/08/13 02:49:45;;;;;;;;;;;21.40;99.90;;;;;;4596616;19;19932;-62
2023/08/13 02:51:17;;;;;;;;;;;21.40;99.90;;;;;;4596371;19;19943;-62
2023/08/13 02:52:48;;;;;;;;;;;21.40;99.90;;;;;;4596807;19;19915;-62
2023/08/13 02:54:19;;;;;;;;;;;21.50;99.90;;;;;;4596515;19;20267;-62
2023/08/13 02:55:51;;;;;;;;;;;21.50;99.90;;;;;;4594768;19;20299;-62
2023/08/13 02:57:23;;;;;;;;;;;21.50;99.90;;;;;;4596429;19;19927;-62
2023/08/13 02:58:54;;;;;;;;;;;21.50;99.90;;;;;;4595364;19;19915;-62
2023/08/13 03:00:25;;;;;;;;;;;21.40;99.90;;;;;;4595906;19;19922;-62
2023/08/13 03:01:56;;;;;;;;;;;21.40;99.90;;;;;;4595161;19;19922;-63
2023/08/13 03:03:28;;;;;;;;;;;21.40;99.90;;;;;;4596388;19;19935;-62
2023/08/13 03:04:59;;;;;;;;;;;21.40;99.90;;;;;;4596112;19;20223;-62
2023/08/13 03:06:30;;;;;;;;;;;21.40;99.90;;;;;;4596224;19;19946;-62
2023/08/13 03:08:03;;;;;;;;;;;21.40;99.90;;;;;;4594760;19;19911;-62
2023/08/13 03:09:35;;;;;;;;;;;21.40;99.90;;;;;;4596125;19;20211;-62
2023/08/13 03:11:06;;;;;;;;;;;21.40;99.90;;;;;;4596434;19;19919;-62
2023/08/13 03:12:37;;;;;;;;;;;21.40;99.90;;;;;;4594135;19;19926;-62
2023/08/13 03:14:09;;;;;;;;;;;21.30;99.90;;;;;;4595993;19;19978;-62
2023/08/13 03:15:41;;;;;;;;;;;21.30;99.90;;;;;;4593354;19;19938;-63
2023/08/13 03:17:13;;;;;;;;;;;21.30;99.90;;;;;;4595560;19;19916;-62
2023/08/13 03:18:44;;;;;;;;;;;21.30;99.90;;;;;;4596000;19;19925;-63
2023/08/13 03:20:16;;;;;;;;;;;21.30;99.90;;;;;;4596161;19;20347;-62
2023/08/13 03:21:47;;;;;;;;;;;21.30;99.90;;;;;;4594849;19;20283;-62
2023/08/13 03:23:19;;;;;;;;;;;21.30;99.90;;;;;;4595572;19;19983;-62
2023/08/13 03:24:50;;;;;;;;;;;21.30;99.90;;;;;;4595848;19;19919;-63
2023/08/13 03:26:21;;;;;;;;;;;21.30;99.90;;;;;;4595865;19;19915;-62
2023/08/13 03:27:53;;;;;;;;;;;21.30;99.90;;;;;;4595853;19;19923;-62
2023/08/13 03:29:24;;;;;;;;;;;21.30;99.90;;;;;;4594476;19;19915;-62
2023/08/13 03:30:59;;;;;;;;;;;21.30;99.90;;;;;;4595307;19;19937;-62
2023/08/13 03:32:31;;;;;;;;;;;21.30;99.90;;;;;;4593974;19;20380;-62
2023/08/13 03:34:02;;;;;;;;;;;21.30;99.90;;;;;;4595703;19;19937;-63
2023/08/13 03:35:37;;;;;;;;;;;21.30;99.90;;;;;;4594696;19;20283;-62
2023/08/13 03:37:09;;;;;;;;;;;21.20;99.90;;;;;;4595601;19;19937;-62
2023/08/13 03:38:40;;;;;;;;;;;21.20;99.90;;;;;;4595900;19;19918;-62
2023/08/13 03:40:11;;;;;;;;;;;21.30;99.90;;;;;;4595523;19;19918;-62
2023/08/13 03:41:43;;;;;;;;;;;21.20;99.90;;;;;;4594561;19;19940;-62
2023/08/13 03:43:14;;;;;;;;;;;21.20;99.90;;;;;;4595472;19;20295;-62
2023/08/13 03:44:47;;;;;;;;;;;21.20;99.90;;;;;;4595445;19;19918;-62
2023/08/13 03:46:18;;;;;;;;;;;21.20;99.90;;;;;;4595469;19;19918;-62
2023/08/13 03:47:50;;;;;;;;;;;21.20;99.90;;;;;;4595331;19;19919;-62
2023/08/13 03:49:21;;;;;;;;;;;21.20;99.90;;;;;;4595391;19;19929;-63
2023/08/13 03:50:52;;;;;;;;;;;21.20;99.90;;;;;;4595285;19;19918;-62
2023/08/13 03:52:23;;;;;;;;;;;21.20;99.90;;;;;;4594010;19;19918;-62
2023/08/13 03:53:55;;;;;;;;;;;21.20;99.90;;;;;;4595274;19;20343;-62
2023/08/13 03:55:26;;;;;;;;;;;21.20;99.90;;;;;;4594549;19;19918;-62
2023/08/13 03:56:57;;;;;;;;;;;21.10;99.90;;;;;;4595475;19;20291;-63
2023/08/13 03:58:30;;;;;;;;;;;21.10;99.90;;;;;;4595169;19;19918;-62
2023/08/13 04:00:01;;;;;;;;;;;21.10;99.90;;;;;;4595137;19;19918;-62
2023/08/13 04:01:32;;;;;;;;;;;21.10;99.90;;;;;;4594377;19;19971;-62
2023/08/13 04:03:04;;;;;;;;;;;21.10;99.90;;;;;;4593476;19;20013;-62
2023/08/13 04:04:35;;;;;;;;;;;21.10;99.90;;;;;;4594958;19;20350;-62
2023/08/13 04:06:07;;;;;;;;;;;21.10;99.90;;;;;;4595222;19;20262;-62
2023/08/13 04:07:38;;;;;;;;;;;21.10;99.90;;;;;;4594948;19;19914;-62
2023/08/13 04:09:09;;;;;;;;;;;21.10;99.90;;;;;;4594928;19;19919;-62
2023/08/13 04:10:41;;;;;;;;;;;21.10;99.90;;;;;;4594919;19;19915;-62
2023/08/13 04:12:12;;;;;;;;;;;21.10;99.90;;;;;;4593568;19;19914;-62
2023/08/13 04:13:43;;;;;;;;;;;21.10;99.90;;;;;;4594809;19;19978;-62
2023/08/13 04:15:15;;;;;;;;;;;21.10;99.90;;;;;;4594056;19;20238;-62
2023/08/13 04:16:46;;;;;;;;;;;21.10;99.90;;;;;;4595116;19;19907;-62
2023/08/13 04:18:17;;;;;;;;;;;21.10;99.90;;;;;;4594676;19;19922;-62
2023/08/13 04:19:48;;;;;;;;;;;21.10;99.90;;;;;;4594963;19;19919;-63
2023/08/13 04:21:19;;;;;;;;;;;21.10;99.90;;;;;;4594229;19;19921;-62
2023/08/13 04:22:51;;;;;;;;;;;21.10;99.90;;;;;;4594700;19;20274;-62
2023/08/13 04:24:23;;;;;;;;;;;21.10;99.90;;;;;;4594617;19;19918;-62
2023/08/13 04:25:54;;;;;;;;;;;21.10;99.90;;;;;;4594546;19;19938;-63
2023/08/13 04:27:25;;;;;;;;;;;21.10;99.90;;;;;;4594522;19;19931;-62
2023/08/13 04:28:57;;;;;;;;;;;21.10;99.90;;;;;;4594853;19;19922;-62
2023/08/13 04:30:29;;;;;;;;;;;21.10;99.90;;;;;;4594442;19;19919;-62
2023/08/13 04:32:01;;;;;;;;;;;21.10;99.90;;;;;;4592113;19;20295;-63
2023/08/13 04:33:35;;;;;;;;;;;21.20;99.90;;;;;;4594007;19;19918;-62
2023/08/13 04:35:06;;;;;;;;;;;21.20;99.90;;;;;;4592782;19;19918;-62
2023/08/13 04:36:37;;;;;;;;;;;21.20;99.90;;;;;;4594656;19;19930;-62
2023/08/13 04:38:09;;;;;;;;;;;21.20;99.90;;;;;;4594660;19;19915;-62
2023/08/13 04:39:40;;;;;;;;;;;21.20;99.90;;;;;;4594357;19;19918;-62
2023/08/13 04:41:11;;;;;;;;;;;21.20;99.90;;;;;;4594133;19;19915;-62
2023/08/13 04:42:43;;;;;;;;;;;21.20;99.90;;;;;;4594012;19;19921;-62
2023/08/13 04:44:14;;;;;;;;;;;21.30;99.90;;;;;;4594251;19;19910;-62
2023/08/13 04:45:46;;;;;;;;;;;21.30;99.90;;;;;;4594215;19;19910;-62
2023/08/13 04:47:18;;;;;;;;;;;21.30;99.90;;;;;;4594472;19;19918;-62
2023/08/13 04:48:49;;;;;;;;;;;21.30;99.90;;;;;;4594100;19;19921;-62
2023/08/13 04:50:20;;;;;;;;;;;21.30;99.90;;;;;;4594039;19;19914;-62
2023/08/13 04:51:53;;;;;;;;;;;21.30;99.90;;;;;;4593161;19;19915;-62
2023/08/13 04:53:24;;;;;;;;;;;21.30;99.90;;;;;;4593965;19;19915;-62
2023/08/13 04:54:55;;;;;;;;;;;21.30;99.90;;;;;;4593590;19;19915;-62
2023/08/13 04:56:27;;;;;;;;;;;21.30;99.90;;;;;;4593889;19;19933;-62
2023/08/13 04:57:59;;;;;;;;;;;21.40;99.90;;;;;;4593876;19;19915;-62
2023/08/13 04:59:30;;;;;;;;;;;21.30;99.90;;;;;;4594185;19;19911;-62
2023/08/13 05:01:08;;;;;;;;;;;21.40;99.90;;;;;;4593801;19;19907;-62
2023/08/13 05:02:39;;;;;;;;;;;21.40;99.90;;;;;;4592203;19;19915;-62
2023/08/13 05:04:12;;;;;;;;;;;21.40;99.90;;;;;;4594090;19;19914;-62
2023/08/13 05:05:43;;;;;;;;;;;21.40;99.90;;;;;;4593719;19;19914;-62
2023/08/13 05:07:15;;;;;;;;;;;21.40;99.90;;;;;;4593735;19;19915;-62
2023/08/13 05:08:47;;;;;;;;;;;21.40;99.90;;;;;;4593767;19;19983;-62
2023/08/13 05:10:18;;;;;;;;;;;21.40;99.90;;;;;;4593603;19;19922;-62
2023/08/13 05:11:49;;;;;;;;;;;21.40;99.90;;;;;;4592801;19;20238;-62
2023/08/13 05:13:20;;;;;;;;;;;21.40;99.90;;;;;;4592249;19;20204;-63
2023/08/13 05:14:52;;;;;;;;;;;21.40;99.90;;;;;;4592887;19;19970;-62
2023/08/13 05:16:24;;;;;;;;;;;21.50;99.90;;;;;;4593586;19;19914;-62
2023/08/13 05:17:55;;;;;;;;;;;21.50;99.90;;;;;;4593601;19;19919;-62
2023/08/13 05:19:27;;;;;;;;;;;21.50;99.90;;;;;;4593523;19;19943;-62
2023/08/13 05:20:58;;;;;;;;;;;21.50;99.90;;;;;;4593477;19;19922;-62
2023/08/13 05:22:29;;;;;;;;;;;21.50;99.90;;;;;;4592141;19;19919;-62
2023/08/13 05:24:01;;;;;;;;;;;21.50;99.90;;;;;;4593442;19;19918;-62
2023/08/13 05:25:37;;;;;;;;;;;21.50;99.90;;;;;;4593270;19;19914;-62
2023/08/13 05:27:09;;;;;;;;;;;21.60;99.90;;;;;;4593358;19;20251;-62
2023/08/13 05:28:40;;;;;;;;;;;21.50;99.90;;;;;;4593630;19;20227;-62
2023/08/13 05:30:12;;;;;;;;;;;21.60;99.90;;;;;;4593647;19;20022;-62
2023/08/13 05:31:43;;;;;;;;;;;21.60;99.90;;;;;;4592846;19;20283;-62
2023/08/13 05:33:14;;;;;;;;;;;21.60;99.90;;;;;;4593258;19;19919;-62
2023/08/13 05:34:45;;;;;;;;;;;21.70;99.90;;;;;;4593291;19;19918;-62
2023/08/13 05:36:17;;;;;;;;;;;21.70;99.90;;;;;;4593126;19;20263;-62
2023/08/13 05:37:48;;;;;;;;;;;21.70;99.90;;;;;;4593124;19;20251;-62
2023/08/13 05:39:19;;;;;;;;;;;21.80;99.90;;;;;;4593429;19;19943;-63
2023/08/13 05:40:51;;;;;;;;;;;21.80;99.90;;;;;;4593114;19;19915;-62
2023/08/13 05:42:23;;;;;;;;;;;21.80;99.90;;;;;;4591855;19;19922;-63
2023/08/13 05:43:54;;;;;;;;;;;21.90;99.90;;;;;;4593385;19;19911;-63
2023/08/13 05:45:26;;;;;;;;;;;21.90;99.90;;;;;;4592523;19;19922;-63
2023/08/13 05:46:59;;;;;;;;;;;22.00;99.90;;;;;;4591208;19;19919;-63
2023/08/13 05:48:30;;;;;;;;;;;22.00;99.90;;;;;;4593325;19;19911;-63
2023/08/13 05:50:01;;;;;;;;;;;22.00;99.90;;;;;;4593203;19;19911;-63
2023/08/13 05:51:33;;;;;;;;;;;22.00;99.90;;;;;;4592612;19;19935;-63
2023/08/13 05:53:04;;;;;;;;;;;22.00;99.90;;;;;;4592907;19;19970;-63
2023/08/13 05:54:35;;;;;;;;;;;22.00;99.90;;;;;;4592877;19;19935;-63
2023/08/13 05:56:07;;;;;;;;;;;22.10;99.90;;;;;;4592980;19;20308;-63
2023/08/13 05:57:39;;;;;;;;;;;21.80;99.90;;;;;;4592893;19;19941;-63
2023/08/13 05:59:10;;;;;;;;;;;21.90;99.90;;;;;;4592942;19;20229;-64
2023/08/13 06:00:42;;;;;;;;;;;21.90;99.90;;;;;;4592753;19;19938;-63
2023/08/13 06:02:13;;;;;;;;;;;22.00;99.90;;;;;;4591626;19;19919;-63
2023/08/13 06:03:44;;;;;;;;;;;22.00;99.90;;;;;;4592724;19;19926;-63
2023/08/13 06:05:16;;;;;;;;;;;22.10;99.90;;;;;;4592949;19;19926;-63
2023/08/13 06:06:48;;;;;;;;;;;22.10;99.90;;;;;;4592680;19;19919;-63
2023/08/13 06:08:20;;;;;;;;;;;22.20;99.90;;;;;;4592884;19;20298;-63
2023/08/13 06:09:51;;;;;;;;;;;22.30;99.90;;;;;;4592942;19;19923;-63
2023/08/13 06:11:23;;;;;;;;;;;22.30;99.90;;;;;;4592363;19;19917;-63
2023/08/13 06:12:54;;;;;;;;;;;22.40;99.90;;;;;;4592634;19;19922;-63
2023/08/13 06:14:25;;;;;;;;;;;22.50;99.90;;;;;;4592573;19;19955;-63
2023/08/13 06:15:57;;;;;;;;;;;22.50;99.90;;;;;;4591663;19;19914;-63
2023/08/13 06:17:28;;;;;;;;;;;22.60;99.90;;;;;;4592407;19;19919;-63
2023/08/13 06:18:59;;;;;;;;;;;22.60;99.90;;;;;;4591155;19;19921;-61
2023/08/13 06:20:31;;;;;;;;;;;22.70;99.90;;;;;;4591072;19;19922;-61
2023/08/13 06:22:04;;;;;;;;;;;22.80;99.90;;;;;;4590968;19;19994;-60
2023/08/13 06:23:35;;;;;;;;;;;22.70;99.90;;;;;;4592313;19;19941;-61
2023/08/13 06:25:06;;;;;;;;;;;22.80;99.90;;;;;;4592345;19;19921;-61
2023/08/13 06:26:38;;;;;;;;;;;22.90;99.90;;;;;;4592255;19;19938;-61
2023/08/13 06:28:09;;;;;;;;;;;22.90;99.90;;;;;;4592285;19;19939;-61
2023/08/13 06:29:41;;;;;;;;;;;23.00;99.90;;;;;;4592277;19;19918;-61
2023/08/13 06:31:13;;;;;;;;;;;22.90;99.90;;;;;;4592108;19;19925;-61
2023/08/13 06:32:45;;;;;;;;;;;23.00;99.90;;;;;;4592170;19;19915;-61
2023/08/13 06:34:17;;;;;;;;;;;23.00;99.90;;;;;;4592467;19;19915;-60
2023/08/13 06:35:48;;;;;;;;;;;23.00;99.90;;;;;;4590975;19;19910;-61
2023/08/13 06:37:20;;;;;;;;;;;23.00;99.90;;;;;;4592143;19;19911;-61
2023/08/13 06:38:51;;;;;;;;;;;23.00;99.90;;;;;;4592075;19;20233;-61
2023/08/13 06:40:22;;;;;;;;;;;23.00;99.90;;;;;;4592033;19;20295;-61
2023/08/13 06:41:54;;;;;;;;;;;23.00;99.90;;;;;;4590978;19;19921;-61
2023/08/13 06:43:25;;;;;;;;;;;23.10;99.90;;;;;;4591980;19;19919;-61
2023/08/13 06:44:56;;;;;;;;;;;23.10;99.90;;;;;;4592386;19;19992;-61
2023/08/13 06:46:28;;;;;;;;;;;23.10;99.90;;;;;;4590003;19;19934;-61
2023/08/13 06:47:59;;;;;;;;;;;23.20;99.90;;;;;;4588912;19;19922;-61
2023/08/13 06:49:30;;;;;;;;;;;23.30;99.90;;;;;;4589087;19;19922;-61
2023/08/13 06:51:02;;;;;;;;;;;23.30;99.90;;;;;;4589137;19;19992;-61
2023/08/13 06:52:33;;;;;;;;;;;23.40;99.90;;;;;;4589869;19;19919;-61
2023/08/13 06:54:05;;;;;;;;;;;23.50;99.90;;;;;;4591839;19;19929;-61
2023/08/13 06:55:37;;;;;;;;;;;23.60;99.90;;;;;;4590940;19;19918;-61
2023/08/13 06:57:08;;;;;;;;;;;23.70;99.90;;;;;;4591851;19;20259;-61
2023/08/13 06:58:39;;;;;;;;;;;23.80;99.90;;;;;;4596336;19;19938;-61
2023/08/13 07:00:12;;;;;;;;;;;23.80;99.90;;;;;;4596281;19;20310;-61
2023/08/13 07:01:43;;;;;;;;;;;23.90;99.90;;;;;;4595020;19;20303;-63
2023/08/13 07:03:14;;;;;;;;;;;24.00;99.90;;;;;;4596649;19;19925;-62
2023/08/13 07:04:46;;;;;;;;;;;24.10;99.90;;;;;;4596610;19;19963;-63
2023/08/13 07:06:17;;;;;;;;;;;24.20;99.90;;;;;;4596525;19;19934;-63
2023/08/13 07:07:50;;;;;;;;;;;24.20;99.90;;;;;;4596188;19;19971;-63
2023/08/13 07:09:24;;;;;;;;;;;24.30;99.90;;;;;;4596194;19;19922;-63
2023/08/13 07:10:55;;;;;;;;;;;24.40;99.90;;;;;;4596556;19;19914;-63
2023/08/13 07:12:27;;;;;;;;;;;24.40;99.90;;;;;;4594429;19;19982;-64
2023/08/13 07:13:58;;;;;;;;;;;24.50;99.90;;;;;;4596466;19;19923;-64
2023/08/13 07:15:29;;;;;;;;;;;24.60;99.90;;;;;;4595037;19;19922;-64
2023/08/13 07:17:01;;;;;;;;;;;24.60;99.90;;;;;;4596419;19;19942;-64
2023/08/13 07:18:32;;;;;;;;;;;24.70;99.90;;;;;;4596034;19;19918;-63
2023/08/13 07:20:09;;;;;;;;;;;24.70;99.90;;;;;;4595950;19;19919;-63
2023/08/13 07:21:41;;;;;;;;;;;24.70;99.90;;;;;;4595046;19;19914;-64
2023/08/13 07:23:13;;;;;;;;;;;24.80;99.90;;;;;;4595798;19;20246;-63
2023/08/13 07:24:44;;;;;;;;;;;24.90;99.90;;;;;;4595802;19;20291;-64
2023/08/13 07:26:16;;;;;;;;;;;24.90;99.90;;;;;;4596033;19;19918;-64
2023/08/13 07:27:48;;;;;;;;;;;24.90;99.90;;;;;;4595611;19;19921;-63
2023/08/13 07:29:20;;;;;;;;;;;22.60;99.90;;;;;;4596107;19;19933;-63
2023/08/13 07:30:51;;;;;;;;;;;21.20;99.90;;;;;;4596022;19;20210;-63
2023/08/13 07:32:23;;;;;;;;;;;20.70;99.90;;;;;;4594115;19;19915;-63
2023/08/13 07:33:55;;;;;;;;;;;20.60;99.90;;;;;;4595653;19;19911;-63
2023/08/13 07:35:27;;;;;;;;;;;20.70;99.90;;;;;;4595017;19;20317;-63
2023/08/13 07:36:58;;;;;;;;;;;20.70;99.90;;;;;;4595516;19;19936;-63
2023/08/13 07:38:29;;;;;;;;;;;20.80;99.90;;;;;;4595505;19;19978;-63
2023/08/13 07:40:01;;;;;;;;;;;20.90;99.90;;;;;;4595655;19;19915;-63
2023/08/13 07:41:32;;;;;;;;;;;21.00;99.90;;;;;;4593777;19;19915;-62
2023/08/13 07:43:04;;;;;;;;;;;21.10;99.90;;;;;;4595109;19;20303;-62
2023/08/13 07:44:35;;;;;;;;;;;21.10;99.90;;;;;;4595432;19;19914;-62
2023/08/13 07:46:07;;;;;;;;;;;21.20;99.90;;;;;;4595338;19;19922;-62
2023/08/13 07:47:39;;;;;;;;;;;21.20;99.90;;;;;;4595340;19;19918;-62
2023/08/13 07:49:10;;;;;;;;;;;21.20;99.90;;;;;;4595277;19;19979;-62
2023/08/13 07:50:42;;;;;;;;;;;21.20;99.90;;;;;;4595180;19;19919;-62
2023/08/13 07:52:13;;;;;;;;;;;21.30;99.90;;;;;;4594250;19;19986;-62
2023/08/13 07:53:44;;;;;;;;;;;21.30;99.90;;;;;;4595250;19;19911;-62
2023/08/13 07:55:15;;;;;;;;;;;21.30;99.90;;;;;;4594975;19;19918;-62
2023/08/13 07:56:48;;;;;;;;;;;21.40;99.90;;;;;;4595075;19;19986;-62
2023/08/13 07:58:19;;;;;;;;;;;21.30;99.90;;;;;;4595115;19;19937;-62
2023/08/13 07:59:50;;;;;;;;;;;21.30;99.90;;;;;;4595021;19;20224;-62
2023/08/13 08:01:22;;;;;;;;;;;21.40;99.90;;;;;;4594568;19;19914;-62
2023/08/13 08:02:53;;;;;;;;;;;21.40;99.90;;;;;;4593582;19;19919;-62
2023/08/13 08:04:27;;;;;;;;;;;21.40;99.90;;;;;;4595301;19;19919;-62
2023/08/13 08:05:59;;;;;;;;;;;21.40;99.90;;;;;;4594881;19;20295;-62
2023/08/13 08:07:30;;;;;;;;;;;21.40;99.90;;;;;;4593604;19;19918;-62
2023/08/13 08:09:02;;;;;;;;;;;21.40;99.90;;;;;;4592805;19;19911;-62
2023/08/13 08:10:34;;;;;;;;;;;21.40;99.90;;;;;;4594670;19;19970;-62
2023/08/13 08:12:05;;;;;;;;;;;21.50;99.90;;;;;;4593764;19;19990;-62
2023/08/13 08:13:37;;;;;;;;;;;21.50;99.90;;;;;;4595101;19;19918;-62
2023/08/13 08:15:08;;;;;;;;;;;21.60;99.90;;;;;;4594308;19;19914;-62
2023/08/13 08:16:40;;;;;;;;;;;21.60;99.90;;;;;;4595043;19;20230;-62
2023/08/13 08:18:11;;;;;;;;;;;21.60;99.90;;;;;;4594701;19;19935;-62
2023/08/13 08:19:43;;;;;;;;;;;21.60;99.90;;;;;;4594689;19;19921;-62
2023/08/13 08:21:16;;;;;;;;;;;21.60;99.90;;;;;;4594332;19;19945;-62
2023/08/13 08:22:48;;;;;;;;;;;21.60;99.90;;;;;;4594564;19;20295;-61
2023/08/13 08:24:19;;;;;;;;;;;21.50;99.90;;;;;;4594639;19;19915;-61
2023/08/13 08:25:51;;;;;;;;;;;21.60;99.90;;;;;;4594551;19;19910;-62
2023/08/13 08:27:23;;;;;;;;;;;21.70;99.90;;;;;;4594664;19;19962;-62
2023/08/13 08:28:54;;;;;;;;;;;21.70;99.90;;;;;;4594557;19;20221;-62
2023/08/13 08:30:25;;;;;;;;;;;21.70;99.90;;;;;;4594836;19;19967;-61
2023/08/13 08:31:57;;;;;;;;;;;21.70;99.90;;;;;;4593862;19;19918;-62
2023/08/13 08:33:28;;;;;;;;;;;21.70;99.90;;;;;;4594508;19;20254;-62
2023/08/13 08:35:01;;;;;;;;;;;21.70;99.90;;;;;;4594319;19;20252;-69
2023/08/13 08:36:32;;;;;;;;;;;21.70;99.90;;;;;;4594424;19;19978;-69
2023/08/13 08:38:04;;;;;;;;;;;21.60;99.90;;;;;;4594626;19;19912;-69
2023/08/13 08:39:35;;;;;;;;;;;21.60;99.90;;;;;;4593186;19;19915;-69
2023/08/13 08:41:07;;;;;;;;;;;21.60;99.90;;;;;;4593906;19;19919;-62
2023/08/13 08:42:38;;;;;;;;;;;21.60;99.90;;;;;;4592840;19;19948;-62
2023/08/13 08:44:12;;;;;;;;;;;21.60;99.90;;;;;;4594276;19;19936;-62
2023/08/13 08:45:45;;;;;;;;;;;21.70;99.90;;;;;;4594174;19;19922;-62
2023/08/13 08:47:16;;;;;;;;;;;21.70;99.90;;;;;;4594185;19;19911;-61
2023/08/13 08:48:48;;;;;;;;;;;21.70;99.90;;;;;;4594197;19;19931;-62
2023/08/13 08:50:20;;;;;;;;;;;21.80;99.90;;;;;;4592586;19;19922;-61
2023/08/13 08:51:51;;;;;;;;;;;21.80;99.90;;;;;;4592675;19;19931;-62
2023/08/13 08:53:22;;;;;;;;;;;21.90;99.90;;;;;;4593989;19;19970;-61